sensor_id;sensor_type;location;lat;lon;timestamp;temperature;humidity
18888;DHT22;9576;47.792;9.628;2022-07-11T00:01:04;15.70;99.90
18888;DHT22;9576;47.792;9.628;2022-07-11T00:04:07;15.70;99.90
18888;DHT22;9576;47.792;9.628;2022-07-11T00:07:09;15.70;99.90
18888;DHT22;9576;47.792;9.628;2022-07-11T00:10:11;15.70;99.90
18888;DHT22;9576;47.792;9.628;2022-07-11T00:13:13;15.60;99.90
18888;DHT22;9576;47.792;9.628;2022-07-11T00:16:15;15.60;99.90
18888;DHT22;9576;47.792;9.628;2022-07-11T00:19:19;15.60;99.90
18888;DHT22;9576;47.792;9.628;2022-07-11T00:22:21;15.60;99.90
18888;DHT22;9576;47.792;9.628;2022-07-11T00:25:22;15.50;99.90
18888;DHT22;9576;47.792;9.628;2022-07-11T00:28:24;15.30;99.90
18888;DHT22;9576;47.792;9.628;2022-07-11T00:31:27;15.20;99.90
18888;DHT22;9576;47.792;9.628;2022-07-11T00:34:31;15.00;99.90
18888;DHT22;9576;47.792;9.628;2022-07-11T00:37:32;14.90;99.90
18888;DHT22;9576;47.792;9.628;2022-07-11T00:40:34;14.90;99.90
18888;DHT22;9576;47.792;9.628;2022-07-11T00:43:38;14.80;99.90
18888;DHT22;9576;47.792;9.628;2022-07-11T00:46:40;14.80;99.90
18888;DHT22;9576;47.792;9.628;2022-07-11T00:49:44;14.70;99.90
18888;DHT22;9576;47.792;9.628;2022-07-11T00:52:46;14.50;99.90
18888;DHT22;9576;47.792;9.628;2022-07-11T00:55:50;14.50;99.90
18888;DHT22;9576;47.792;9.628;2022-07-11T00:58:54;14.40;99.90
18888;DHT22;9576;47.792;9.628;2022-07-11T01:01:56;14.30;99.90
18888;DHT22;9576;47.792;9.628;2022-07-11T01:05:00;14.30;99.90
18888;DHT22;9576;47.792;9.628;2022-07-11T01:08:02;14.10;99.90
18888;DHT22;9576;47.792;9.628;2022-07-11T01:11:05;14.10;99.90
18888;DHT22;9576;47.792;9.628;2022-07-11T01:14:09;14.00;99.90
18888;DHT22;9576;47.792;9.628;2022-07-11T01:17:11;14.00;99.90
18888;DHT22;9576;47.792;9.628;2022-07-11T01:20:14;14.00;99.90
18888;DHT22;9576;47.792;9.628;2022-07-11T01:23:18;14.10;99.90
18888;DHT22;9576;47.792;9.628;2022-07-11T01:26:21;14.10;99.90
18888;DHT22;9576;47.792;9.628;2022-07-11T01:29:23;14.20;99.90
18888;DHT22;9576;47.792;9.628;2022-07-11T01:32:25;14.10;99.90
18888;DHT22;9576;47.792;9.628;2022-07-11T01:35:28;14.00;99.90
18888;DHT22;9576;47.792;9.628;2022-07-11T01:38:32;13.90;99.90
18888;DHT22;9576;47.792;9.628;2022-07-11T01:41:34;13.90;99.90
18888;DHT22;9576;47.792;9.628;2022-07-11T01:44:36;13.90;99.90
18888;DHT22;9576;47.792;9.628;2022-07-11T01:47:38;13.90;99.90
18888;DHT22;9576;47.792;9.628;2022-07-11T01:50:40;13.80;99.90
18888;DHT22;9576;47.792;9.628;2022-07-11T01:53:44;13.80;99.90
18888;DHT22;9576;47.792;9.628;2022-07-11T01:56:46;13.70;99.90
18888;DHT22;9576;47.792;9.628;2022-07-11T01:59:48;13.70;99.90
18888;DHT22;9576;47.792;9.628;2022-07-11T02:02:50;13.60;99.90
18888;DHT22;9576;47.792;9.628;2022-07-11T02:05:52;13.50;99.90
18888;DHT22;9576;47.792;9.628;2022-07-11T02:08:55;13.40;99.90
18888;DHT22;9576;47.792;9.628;2022-07-11T02:11:57;13.40;99.90
18888;DHT22;9576;47.792;9.628;2022-07-11T02:14:59;13.30;99.90
18888;DHT22;9576;47.792;9.628;2022-07-11T02:18:02;13.30;99.90
18888;DHT22;9576;47.792;9.628;2022-07-11T02:21:04;13.20;99.90
18888;DHT22;9576;47.792;9.628;2022-07-11T02:24:08;13.20;99.90
18888;DHT22;9576;47.792;9.628;2022-07-11T02:27:10;13.10;99.90
18888;DHT22;9576;47.792;9.628;2022-07-11T02:30:12;13.10;99.90
18888;DHT22;9576;47.792;9.628;2022-07-11T02:33:14;13.00;99.90
18888;DHT22;9576;47.792;9.628;2022-07-11T02:36:17;13.00;99.90
18888;DHT22;9576;47.792;9.628;2022-07-11T02:39:20;12.90;99.90
18888;DHT22;9576;47.792;9.628;2022-07-11T02:42:22;12.90;99.90
18888;DHT22;9576;47.792;9.628;2022-07-11T02:45:24;12.90;99.90
18888;DHT22;9576;47.792;9.628;2022-07-11T02:48:26;12.80;99.90
18888;DHT22;9576;47.792;9.628;2022-07-11T02:51:28;12.80;99.90
18888;DHT22;9576;47.792;9.628;2022-07-11T02:54:31;12.80;99.90
18888;DHT22;9576;47.792;9.628;2022-07-11T02:57:33;12.70;99.90
18888;DHT22;9576;47.792;9.628;2022-07-11T03:00:35;12.70;99.90
18888;DHT22;9576;47.792;9.628;2022-07-11T03:03:37;12.50;99.90
18888;DHT22;9576;47.792;9.628;2022-07-11T03:06:40;12.60;99.90
18888;DHT22;9576;47.792;9.628;2022-07-11T03:09:43;12.60;99.90
18888;DHT22;9576;47.792;9.628;2022-07-11T03:12:45;12.60;99.90
18888;DHT22;9576;47.792;9.628;2022-07-11T03:15:47;12.60;99.90
18888;DHT22;9576;47.792;9.628;2022-07-11T03:18:49;12.60;99.90
18888;DHT22;9576;47.792;9.628;2022-07-11T03:21:51;12.60;99.90
18888;DHT22;9576;47.792;9.628;2022-07-11T03:24:54;12.60;99.90
18888;DHT22;9576;47.792;9.628;2022-07-11T03:27:56;12.50;99.90
18888;DHT22;9576;47.792;9.628;2022-07-11T03:30:58;12.40;99.90
18888;DHT22;9576;47.792;9.628;2022-07-11T03:34:00;12.50;99.90
18888;DHT22;9576;47.792;9.628;2022-07-11T03:37:03;12.40;99.90
18888;DHT22;9576;47.792;9.628;2022-07-11T03:40:08;12.40;99.90
18888;DHT22;9576;47.792;9.628;2022-07-11T03:43:10;12.40;99.90
18888;DHT22;9576;47.792;9.628;2022-07-11T03:46:12;12.40;99.90
18888;DHT22;9576;47.792;9.628;2022-07-11T03:49:14;12.30;99.90
18888;DHT22;9576;47.792;9.628;2022-07-11T03:52:16;12.30;99.90
18888;DHT22;9576;47.792;9.628;2022-07-11T03:55:19;12.40;99.90
18888;DHT22;9576;47.792;9.628;2022-07-11T03:58:22;12.30;99.90
18888;DHT22;9576;47.792;9.628;2022-07-11T04:01:23;12.30;99.90
18888;DHT22;9576;47.792;9.628;2022-07-11T04:04:26;12.30;99.90
18888;DHT22;9576;47.792;9.628;2022-07-11T04:07:28;12.30;99.90
18888;DHT22;9576;47.792;9.628;2022-07-11T04:10:31;12.30;99.90
18888;DHT22;9576;47.792;9.628;2022-07-11T04:13:33;12.30;99.90
18888;DHT22;9576;47.792;9.628;2022-07-11T04:16:35;12.30;99.90
18888;DHT22;9576;47.792;9.628;2022-07-11T04:19:37;12.30;99.90
18888;DHT22;9576;47.792;9.628;2022-07-11T04:22:39;12.30;99.90
18888;DHT22;9576;47.792;9.628;2022-07-11T04:25:42;12.30;99.90
18888;DHT22;9576;47.792;9.628;2022-07-11T04:28:44;12.30;99.90
18888;DHT22;9576;47.792;9.628;2022-07-11T04:31:46;12.30;99.90
18888;DHT22;9576;47.792;9.628;2022-07-11T04:34:48;12.30;99.90
18888;DHT22;9576;47.792;9.628;2022-07-11T04:37:50;12.40;99.90
18888;DHT22;9576;47.792;9.628;2022-07-11T04:40:54;12.40;99.90
18888;DHT22;9576;47.792;9.628;2022-07-11T04:43:56;12.40;99.90
18888;DHT22;9576;47.792;9.628;2022-07-11T04:46:59;12.50;99.90
18888;DHT22;9576;47.792;9.628;2022-07-11T04:50:01;12.50;99.90
18888;DHT22;9576;47.792;9.628;2022-07-11T04:53:03;12.50;99.90
18888;DHT22;9576;47.792;9.628;2022-07-11T04:56:07;12.40;99.90
18888;DHT22;9576;47.792;9.628;2022-07-11T04:59:09;12.50;99.90
18888;DHT22;9576;47.792;9.628;2022-07-11T05:02:11;12.50;99.90
18888;DHT22;9576;47.792;9.628;2022-07-11T05:05:13;12.50;99.90
18888;DHT22;9576;47.792;9.628;2022-07-11T05:08:15;12.40;99.90
18888;DHT22;9576;47.792;9.628;2022-07-11T05:11:18;12.50;99.90
18888;DHT22;9576;47.792;9.628;2022-07-11T05:14:20;12.60;99.90
18888;DHT22;9576;47.792;9.628;2022-07-11T05:17:22;12.70;99.90
18888;DHT22;9576;47.792;9.628;2022-07-11T05:20:25;12.80;99.90
18888;DHT22;9576;47.792;9.628;2022-07-11T05:23:27;12.90;99.90
18888;DHT22;9576;47.792;9.628;2022-07-11T05:26:30;12.80;99.90
18888;DHT22;9576;47.792;9.628;2022-07-11T05:29:32;12.80;99.90
18888;DHT22;9576;47.792;9.628;2022-07-11T05:32:34;12.80;99.90
18888;DHT22;9576;47.792;9.628;2022-07-11T05:35:36;12.80;99.90
18888;DHT22;9576;47.792;9.628;2022-07-11T05:38:38;12.80;99.90
18888;DHT22;9576;47.792;9.628;2022-07-11T05:41:41;12.90;99.90
18888;DHT22;9576;47.792;9.628;2022-07-11T05:44:43;12.90;99.90
18888;DHT22;9576;47.792;9.628;2022-07-11T05:47:45;12.90;99.90
18888;DHT22;9576;47.792;9.628;2022-07-11T05:50:47;12.90;99.90
18888;DHT22;9576;47.792;9.628;2022-07-11T05:53:49;13.00;99.90
18888;DHT22;9576;47.792;9.628;2022-07-11T05:56:52;13.10;99.90
18888;DHT22;9576;47.792;9.628;2022-07-11T05:59:55;13.20;99.90
18888;DHT22;9576;47.792;9.628;2022-07-11T06:02:57;13.30;99.90
18888;DHT22;9576;47.792;9.628;2022-07-11T06:05:59;13.40;99.90
18888;DHT22;9576;47.792;9.628;2022-07-11T06:09:05;13.40;99.90
18888;DHT22;9576;47.792;9.628;2022-07-11T06:12:08;13.50;99.90
18888;DHT22;9576;47.792;9.628;2022-07-11T06:15:10;13.50;99.90
18888;DHT22;9576;47.792;9.628;2022-07-11T06:18:12;13.60;99.90
18888;DHT22;9576;47.792;9.628;2022-07-11T06:21:14;13.70;99.90
18888;DHT22;9576;47.792;9.628;2022-07-11T06:24:16;13.80;99.90
18888;DHT22;9576;47.792;9.628;2022-07-11T06:27:20;13.80;99.90
18888;DHT22;9576;47.792;9.628;2022-07-11T06:30:22;13.90;99.90
18888;DHT22;9576;47.792;9.628;2022-07-11T06:33:24;14.00;99.90
18888;DHT22;9576;47.792;9.628;2022-07-11T06:36:26;14.10;99.90
18888;DHT22;9576;47.792;9.628;2022-07-11T06:39:28;14.20;99.90
18888;DHT22;9576;47.792;9.628;2022-07-11T06:42:32;14.30;99.90
18888;DHT22;9576;47.792;9.628;2022-07-11T06:45:34;14.40;99.90
18888;DHT22;9576;47.792;9.628;2022-07-11T06:48:36;14.50;99.90
18888;DHT22;9576;47.792;9.628;2022-07-11T06:51:38;14.60;99.90
18888;DHT22;9576;47.792;9.628;2022-07-11T06:54:40;14.70;99.90
18888;DHT22;9576;47.792;9.628;2022-07-11T06:57:43;14.80;99.90
18888;DHT22;9576;47.792;9.628;2022-07-11T07:00:45;14.90;99.90
18888;DHT22;9576;47.792;9.628;2022-07-11T07:03:47;15.00;99.90
18888;DHT22;9576;47.792;9.628;2022-07-11T07:06:49;15.10;99.90
18888;DHT22;9576;47.792;9.628;2022-07-11T07:09:51;15.20;99.90
18888;DHT22;9576;47.792;9.628;2022-07-11T07:12:55;15.40;99.90
18888;DHT22;9576;47.792;9.628;2022-07-11T07:15:57;15.50;99.90
18888;DHT22;9576;47.792;9.628;2022-07-11T07:18:59;15.60;99.90
18888;DHT22;9576;47.792;9.628;2022-07-11T07:22:01;15.70;99.90
18888;DHT22;9576;47.792;9.628;2022-07-11T07:25:06;15.90;99.90
18888;DHT22;9576;47.792;9.628;2022-07-11T07:28:10;16.10;99.90
18888;DHT22;9576;47.792;9.628;2022-07-11T07:31:12;16.20;99.90
18888;DHT22;9576;47.792;9.628;2022-07-11T07:34:14;16.40;99.90
18888;DHT22;9576;47.792;9.628;2022-07-11T07:37:16;16.50;99.90
18888;DHT22;9576;47.792;9.628;2022-07-11T07:40:18;16.60;99.90
18888;DHT22;9576;47.792;9.628;2022-07-11T07:43:21;16.70;99.90
18888;DHT22;9576;47.792;9.628;2022-07-11T07:46:23;16.80;99.90
18888;DHT22;9576;47.792;9.628;2022-07-11T07:49:25;16.90;99.90
18888;DHT22;9576;47.792;9.628;2022-07-11T07:52:28;17.00;99.90
18888;DHT22;9576;47.792;9.628;2022-07-11T07:55:30;17.00;99.90
18888;DHT22;9576;47.792;9.628;2022-07-11T07:58:33;17.10;99.90
18888;DHT22;9576;47.792;9.628;2022-07-11T08:01:35;17.30;99.90
18888;DHT22;9576;47.792;9.628;2022-07-11T08:04:37;17.30;99.90
18888;DHT22;9576;47.792;9.628;2022-07-11T08:07:39;17.40;99.90
18888;DHT22;9576;47.792;9.628;2022-07-11T08:10:41;17.60;99.90
18888;DHT22;9576;47.792;9.628;2022-07-11T08:13:45;17.70;99.90
18888;DHT22;9576;47.792;9.628;2022-07-11T08:16:47;17.90;99.90
18888;DHT22;9576;47.792;9.628;2022-07-11T08:19:49;17.90;99.90
18888;DHT22;9576;47.792;9.628;2022-07-11T08:22:51;17.90;99.90
18888;DHT22;9576;47.792;9.628;2022-07-11T08:25:53;18.00;99.90
18888;DHT22;9576;47.792;9.628;2022-07-11T08:28:57;18.10;99.90
18888;DHT22;9576;47.792;9.628;2022-07-11T08:31:59;18.30;99.90
18888;DHT22;9576;47.792;9.628;2022-07-11T08:35:01;18.40;99.90
18888;DHT22;9576;47.792;9.628;2022-07-11T08:38:03;18.60;99.90
18888;DHT22;9576;47.792;9.628;2022-07-11T08:41:05;18.60;99.90
18888;DHT22;9576;47.792;9.628;2022-07-11T08:44:08;18.70;99.90
18888;DHT22;9576;47.792;9.628;2022-07-11T08:47:11;18.70;99.90
18888;DHT22;9576;47.792;9.628;2022-07-11T08:50:13;18.80;99.90
18888;DHT22;9576;47.792;9.628;2022-07-11T08:53:15;19.00;99.90
18888;DHT22;9576;47.792;9.628;2022-07-11T08:56:18;19.10;99.90
18888;DHT22;9576;47.792;9.628;2022-07-11T08:59:25;19.20;99.90
18888;DHT22;9576;47.792;9.628;2022-07-11T09:02:29;19.30;99.90
18888;DHT22;9576;47.792;9.628;2022-07-11T09:05:33;19.50;99.90
18888;DHT22;9576;47.792;9.628;2022-07-11T09:08:37;19.60;99.90
18888;DHT22;9576;47.792;9.628;2022-07-11T09:11:50;19.80;99.90
18888;DHT22;9576;47.792;9.628;2022-07-11T09:14:53;19.70;99.90
18888;DHT22;9576;47.792;9.628;2022-07-11T09:17:56;19.70;99.90
18888;DHT22;9576;47.792;9.628;2022-07-11T09:20:59;19.90;99.90
18888;DHT22;9576;47.792;9.628;2022-07-11T09:24:19;19.90;99.90
18888;DHT22;9576;47.792;9.628;2022-07-11T09:27:43;20.10;99.90
18888;DHT22;9576;47.792;9.628;2022-07-11T09:30:47;20.30;99.90
18888;DHT22;9576;47.792;9.628;2022-07-11T09:34:03;20.50;99.90
18888;DHT22;9576;47.792;9.628;2022-07-11T09:37:06;20.80;99.90
18888;DHT22;9576;47.792;9.628;2022-07-11T09:40:11;20.80;99.90
18888;DHT22;9576;47.792;9.628;2022-07-11T09:43:15;20.80;99.90
18888;DHT22;9576;47.792;9.628;2022-07-11T09:46:26;20.80;99.90
18888;DHT22;9576;47.792;9.628;2022-07-11T09:49:33;20.70;99.90
18888;DHT22;9576;47.792;9.628;2022-07-11T09:52:35;20.70;99.90
18888;DHT22;9576;47.792;9.628;2022-07-11T09:55:38;20.60;99.90
18888;DHT22;9576;47.792;9.628;2022-07-11T09:58:41;20.50;99.90
18888;DHT22;9576;47.792;9.628;2022-07-11T10:01:45;20.60;99.90
18888;DHT22;9576;47.792;9.628;2022-07-11T10:04:47;20.70;99.90
18888;DHT22;9576;47.792;9.628;2022-07-11T10:07:50;20.70;99.90
18888;DHT22;9576;47.792;9.628;2022-07-11T10:10:52;20.80;99.90
18888;DHT22;9576;47.792;9.628;2022-07-11T10:13:55;20.70;99.90
18888;DHT22;9576;47.792;9.628;2022-07-11T10:17:02;20.80;99.90
18888;DHT22;9576;47.792;9.628;2022-07-11T10:20:11;21.20;99.90
18888;DHT22;9576;47.792;9.628;2022-07-11T10:23:22;21.60;99.90
18888;DHT22;9576;47.792;9.628;2022-07-11T10:26:32;21.90;99.90
18888;DHT22;9576;47.792;9.628;2022-07-11T10:29:43;22.20;99.90
18888;DHT22;9576;47.792;9.628;2022-07-11T10:33:00;22.50;99.90
18888;DHT22;9576;47.792;9.628;2022-07-11T10:36:04;22.80;99.90
18888;DHT22;9576;47.792;9.628;2022-07-11T10:39:18;22.90;99.90
18888;DHT22;9576;47.792;9.628;2022-07-11T10:42:38;23.10;99.90
18888;DHT22;9576;47.792;9.628;2022-07-11T10:45:58;23.10;99.90
18888;DHT22;9576;47.792;9.628;2022-07-11T10:49:15;23.10;99.90
18888;DHT22;9576;47.792;9.628;2022-07-11T10:52:22;23.20;99.90
18888;DHT22;9576;47.792;9.628;2022-07-11T10:55:34;23.30;99.90
18888;DHT22;9576;47.792;9.628;2022-07-11T10:58:41;23.30;99.90
18888;DHT22;9576;47.792;9.628;2022-07-11T11:02:09;23.40;99.90
18888;DHT22;9576;47.792;9.628;2022-07-11T11:05:39;23.30;99.90
18888;DHT22;9576;47.792;9.628;2022-07-11T11:08:46;23.20;99.90
18888;DHT22;9576;47.792;9.628;2022-07-11T11:11:48;23.30;99.90
18888;DHT22;9576;47.792;9.628;2022-07-11T11:14:50;23.50;99.90
18888;DHT22;9576;47.792;9.628;2022-07-11T11:18:40;23.60;99.90
18888;DHT22;9576;47.792;9.628;2022-07-11T11:21:59;23.70;99.90
18888;DHT22;9576;47.792;9.628;2022-07-11T11:25:02;23.60;99.90
18888;DHT22;9576;47.792;9.628;2022-07-11T11:28:04;23.80;99.90
18888;DHT22;9576;47.792;9.628;2022-07-11T11:31:08;24.10;99.90
18888;DHT22;9576;47.792;9.628;2022-07-11T11:34:10;24.40;99.90
18888;DHT22;9576;47.792;9.628;2022-07-11T11:37:15;24.40;99.90
18888;DHT22;9576;47.792;9.628;2022-07-11T11:40:17;24.30;99.60
18888;DHT22;9576;47.792;9.628;2022-07-11T11:43:20;24.20;99.90
18888;DHT22;9576;47.792;9.628;2022-07-11T11:46:24;24.50;99.90
18888;DHT22;9576;47.792;9.628;2022-07-11T11:49:27;24.90;99.90
18888;DHT22;9576;47.792;9.628;2022-07-11T11:52:32;25.10;99.90
18888;DHT22;9576;47.792;9.628;2022-07-11T11:55:35;24.80;99.90
18888;DHT22;9576;47.792;9.628;2022-07-11T11:58:37;24.50;99.60
18888;DHT22;9576;47.792;9.628;2022-07-11T12:01:41;24.00;99.90
18888;DHT22;9576;47.792;9.628;2022-07-11T12:04:43;23.70;99.90
18888;DHT22;9576;47.792;9.628;2022-07-11T12:07:47;23.80;99.90
18888;DHT22;9576;47.792;9.628;2022-07-11T12:10:53;24.20;99.90
18888;DHT22;9576;47.792;9.628;2022-07-11T12:13:55;24.70;99.90
18888;DHT22;9576;47.792;9.628;2022-07-11T12:16:58;25.30;99.90
18888;DHT22;9576;47.792;9.628;2022-07-11T12:20:00;25.60;99.60
18888;DHT22;9576;47.792;9.628;2022-07-11T12:23:05;25.90;99.90
18888;DHT22;9576;47.792;9.628;2022-07-11T12:26:08;26.20;99.90
18888;DHT22;9576;47.792;9.628;2022-07-11T12:29:11;26.30;99.90
18888;DHT22;9576;47.792;9.628;2022-07-11T12:32:17;26.60;99.90
18888;DHT22;9576;47.792;9.628;2022-07-11T12:35:19;26.20;97.40
18888;DHT22;9576;47.792;9.628;2022-07-11T12:38:23;25.90;97.90
18888;DHT22;9576;47.792;9.628;2022-07-11T12:41:25;25.70;99.50
18888;DHT22;9576;47.792;9.628;2022-07-11T12:44:29;25.80;99.90
18888;DHT22;9576;47.792;9.628;2022-07-11T12:47:49;26.30;99.90
18888;DHT22;9576;47.792;9.628;2022-07-11T12:50:53;26.90;99.90
18888;DHT22;9576;47.792;9.628;2022-07-11T12:54:01;27.50;99.90
18888;DHT22;9576;47.792;9.628;2022-07-11T12:57:04;27.60;98.10
18888;DHT22;9576;47.792;9.628;2022-07-11T13:00:12;27.00;97.40
18888;DHT22;9576;47.792;9.628;2022-07-11T13:03:27;27.10;99.90
18888;DHT22;9576;47.792;9.628;2022-07-11T13:06:29;27.30;97.60
18888;DHT22;9576;47.792;9.628;2022-07-11T13:09:50;27.80;99.90
18888;DHT22;9576;47.792;9.628;2022-07-11T13:12:52;28.00;99.50
18888;DHT22;9576;47.792;9.628;2022-07-11T13:15:55;28.00;97.60
18888;DHT22;9576;47.792;9.628;2022-07-11T13:18:57;28.40;97.80
18888;DHT22;9576;47.792;9.628;2022-07-11T13:22:00;28.10;97.30
18888;DHT22;9576;47.792;9.628;2022-07-11T13:25:04;28.10;95.70
18888;DHT22;9576;47.792;9.628;2022-07-11T13:28:06;27.80;95.50
18888;DHT22;9576;47.792;9.628;2022-07-11T13:31:08;27.80;96.60
18888;DHT22;9576;47.792;9.628;2022-07-11T13:34:10;27.60;96.10
18888;DHT22;9576;47.792;9.628;2022-07-11T13:37:12;27.70;96.60
18888;DHT22;9576;47.792;9.628;2022-07-11T13:40:17;28.20;97.60
18888;DHT22;9576;47.792;9.628;2022-07-11T13:43:19;29.00;96.80
18888;DHT22;9576;47.792;9.628;2022-07-11T13:46:21;29.30;97.80
18888;DHT22;9576;47.792;9.628;2022-07-11T13:49:23;29.40;94.90
18888;DHT22;9576;47.792;9.628;2022-07-11T13:52:25;29.50;95.30
18888;DHT22;9576;47.792;9.628;2022-07-11T13:55:28;29.90;96.60
18888;DHT22;9576;47.792;9.628;2022-07-11T13:58:31;30.10;95.40
18888;DHT22;9576;47.792;9.628;2022-07-11T14:01:33;30.50;96.50
18888;DHT22;9576;47.792;9.628;2022-07-11T14:04:35;30.80;95.90
18888;DHT22;9576;47.792;9.628;2022-07-11T14:07:37;31.10;97.30
18888;DHT22;9576;47.792;9.628;2022-07-11T14:10:41;31.40;93.50
18888;DHT22;9576;47.792;9.628;2022-07-11T14:13:44;31.60;93.20
18888;DHT22;9576;47.792;9.628;2022-07-11T14:16:46;31.90;97.50
18888;DHT22;9576;47.792;9.628;2022-07-11T14:19:48;32.00;91.50
18888;DHT22;9576;47.792;9.628;2022-07-11T14:22:50;31.50;92.60
18888;DHT22;9576;47.792;9.628;2022-07-11T14:25:53;31.30;92.30
18888;DHT22;9576;47.792;9.628;2022-07-11T14:28:56;31.20;92.40
18888;DHT22;9576;47.792;9.628;2022-07-11T14:31:58;31.50;91.20
18888;DHT22;9576;47.792;9.628;2022-07-11T14:35:03;31.80;92.70
18888;DHT22;9576;47.792;9.628;2022-07-11T14:38:05;31.90;92.10
18888;DHT22;9576;47.792;9.628;2022-07-11T14:41:09;31.70;91.70
18888;DHT22;9576;47.792;9.628;2022-07-11T14:44:11;31.40;91.70
18888;DHT22;9576;47.792;9.628;2022-07-11T14:47:13;31.50;90.60
18888;DHT22;9576;47.792;9.628;2022-07-11T14:50:15;31.40;91.10
18888;DHT22;9576;47.792;9.628;2022-07-11T14:53:17;31.30;92.10
18888;DHT22;9576;47.792;9.628;2022-07-11T14:56:20;31.50;90.60
18888;DHT22;9576;47.792;9.628;2022-07-11T14:59:22;32.00;90.20
18888;DHT22;9576;47.792;9.628;2022-07-11T15:02:24;32.20;91.00
18888;DHT22;9576;47.792;9.628;2022-07-11T15:05:43;32.50;90.00
18888;DHT22;9576;47.792;9.628;2022-07-11T15:08:45;32.80;88.80
18888;DHT22;9576;47.792;9.628;2022-07-11T15:12:15;32.90;90.10
18888;DHT22;9576;47.792;9.628;2022-07-11T15:15:24;33.50;91.00
18888;DHT22;9576;47.792;9.628;2022-07-11T15:18:26;34.40;91.40
18888;DHT22;9576;47.792;9.628;2022-07-11T15:21:28;35.10;87.00
18888;DHT22;9576;47.792;9.628;2022-07-11T15:24:30;35.20;88.10
18888;DHT22;9576;47.792;9.628;2022-07-11T15:27:34;35.40;82.60
18888;DHT22;9576;47.792;9.628;2022-07-11T15:30:36;35.40;82.50
18888;DHT22;9576;47.792;9.628;2022-07-11T15:33:38;35.20;86.80
18888;DHT22;9576;47.792;9.628;2022-07-11T15:36:40;36.00;84.80
18888;DHT22;9576;47.792;9.628;2022-07-11T15:39:42;36.40;81.80
18888;DHT22;9576;47.792;9.628;2022-07-11T15:42:46;35.80;80.90
18888;DHT22;9576;47.792;9.628;2022-07-11T15:45:48;36.10;81.90
18888;DHT22;9576;47.792;9.628;2022-07-11T15:48:50;37.00;78.80
18888;DHT22;9576;47.792;9.628;2022-07-11T15:51:52;37.60;79.00
18888;DHT22;9576;47.792;9.628;2022-07-11T15:54:54;38.10;78.10
18888;DHT22;9576;47.792;9.628;2022-07-11T15:57:57;38.70;79.20
18888;DHT22;9576;47.792;9.628;2022-07-11T16:00:59;38.60;72.90
18888;DHT22;9576;47.792;9.628;2022-07-11T16:04:02;38.00;76.30
18888;DHT22;9576;47.792;9.628;2022-07-11T16:07:04;38.20;73.80
18888;DHT22;9576;47.792;9.628;2022-07-11T16:10:09;38.20;72.70
18888;DHT22;9576;47.792;9.628;2022-07-11T16:13:12;38.20;72.60
18888;DHT22;9576;47.792;9.628;2022-07-11T16:16:14;38.40;74.30
18888;DHT22;9576;47.792;9.628;2022-07-11T16:19:17;38.10;72.20
18888;DHT22;9576;47.792;9.628;2022-07-11T16:22:19;38.80;74.00
18888;DHT22;9576;47.792;9.628;2022-07-11T16:25:21;38.20;70.00
18888;DHT22;9576;47.792;9.628;2022-07-11T16:28:24;38.10;71.20
18888;DHT22;9576;47.792;9.628;2022-07-11T16:31:26;38.60;70.30
18888;DHT22;9576;47.792;9.628;2022-07-11T16:34:28;38.80;69.40
18888;DHT22;9576;47.792;9.628;2022-07-11T16:37:31;38.40;71.70
18888;DHT22;9576;47.792;9.628;2022-07-11T16:40:33;38.50;72.70
18888;DHT22;9576;47.792;9.628;2022-07-11T16:43:54;38.50;70.20
18888;DHT22;9576;47.792;9.628;2022-07-11T16:46:56;37.60;70.30
18888;DHT22;9576;47.792;9.628;2022-07-11T16:49:58;37.40;71.70
18888;DHT22;9576;47.792;9.628;2022-07-11T16:53:00;37.00;70.70
18888;DHT22;9576;47.792;9.628;2022-07-11T16:56:02;36.50;71.20
18888;DHT22;9576;47.792;9.628;2022-07-11T16:59:07;36.40;71.10
18888;DHT22;9576;47.792;9.628;2022-07-11T17:02:09;36.00;72.70
18888;DHT22;9576;47.792;9.628;2022-07-11T17:05:12;36.20;72.20
18888;DHT22;9576;47.792;9.628;2022-07-11T17:08:14;36.20;71.90
18888;DHT22;9576;47.792;9.628;2022-07-11T17:11:34;36.00;72.70
18888;DHT22;9576;47.792;9.628;2022-07-11T17:14:37;36.50;71.90
18888;DHT22;9576;47.792;9.628;2022-07-11T17:17:39;36.80;72.00
18888;DHT22;9576;47.792;9.628;2022-07-11T17:20:42;36.70;71.50
18888;DHT22;9576;47.792;9.628;2022-07-11T17:23:46;36.80;74.20
18888;DHT22;9576;47.792;9.628;2022-07-11T17:26:48;36.20;72.80
18888;DHT22;9576;47.792;9.628;2022-07-11T17:29:52;34.90;73.20
18888;DHT22;9576;47.792;9.628;2022-07-11T17:32:54;33.60;74.60
18888;DHT22;9576;47.792;9.628;2022-07-11T17:35:58;31.90;76.00
18888;DHT22;9576;47.792;9.628;2022-07-11T17:39:00;30.80;83.20
18888;DHT22;9576;47.792;9.628;2022-07-11T17:42:03;29.80;82.60
18888;DHT22;9576;47.792;9.628;2022-07-11T17:45:07;28.60;85.30
18888;DHT22;9576;47.792;9.628;2022-07-11T17:48:10;27.70;88.90
18888;DHT22;9576;47.792;9.628;2022-07-11T17:51:13;26.80;88.90
18888;DHT22;9576;47.792;9.628;2022-07-11T17:54:15;25.90;90.60
18888;DHT22;9576;47.792;9.628;2022-07-11T17:57:17;25.30;91.50
18888;DHT22;9576;47.792;9.628;2022-07-11T18:00:21;24.80;92.30
18888;DHT22;9576;47.792;9.628;2022-07-11T18:03:23;24.50;93.20
18888;DHT22;9576;47.792;9.628;2022-07-11T18:06:25;24.30;93.70
18888;DHT22;9576;47.792;9.628;2022-07-11T18:09:27;24.20;93.90
18888;DHT22;9576;47.792;9.628;2022-07-11T18:12:28;24.00;95.30
18888;DHT22;9576;47.792;9.628;2022-07-11T18:15:32;23.70;94.50
18888;DHT22;9576;47.792;9.628;2022-07-11T18:18:34;23.50;95.70
18888;DHT22;9576;47.792;9.628;2022-07-11T18:21:36;23.30;95.40
18888;DHT22;9576;47.792;9.628;2022-07-11T18:24:38;23.10;95.80
18888;DHT22;9576;47.792;9.628;2022-07-11T18:27:40;22.90;95.90
18888;DHT22;9576;47.792;9.628;2022-07-11T18:30:43;22.70;97.40
18888;DHT22;9576;47.792;9.628;2022-07-11T18:33:45;22.50;97.60
18888;DHT22;9576;47.792;9.628;2022-07-11T18:36:47;22.40;97.20
18888;DHT22;9576;47.792;9.628;2022-07-11T18:39:49;22.40;97.50
18888;DHT22;9576;47.792;9.628;2022-07-11T18:43:09;22.30;98.10
18888;DHT22;9576;47.792;9.628;2022-07-11T18:46:12;22.40;98.60
18888;DHT22;9576;47.792;9.628;2022-07-11T18:49:14;22.30;99.50
18888;DHT22;9576;47.792;9.628;2022-07-11T18:52:16;22.20;99.50
18888;DHT22;9576;47.792;9.628;2022-07-11T18:55:18;22.20;99.00
18888;DHT22;9576;47.792;9.628;2022-07-11T18:58:21;22.10;99.30
18888;DHT22;9576;47.792;9.628;2022-07-11T19:01:24;21.90;99.60
18888;DHT22;9576;47.792;9.628;2022-07-11T19:04:26;21.80;99.50
18888;DHT22;9576;47.792;9.628;2022-07-11T19:07:29;21.80;99.90
18888;DHT22;9576;47.792;9.628;2022-07-11T19:10:31;21.70;99.90
18888;DHT22;9576;47.792;9.628;2022-07-11T19:13:33;21.60;99.90
18888;DHT22;9576;47.792;9.628;2022-07-11T19:16:37;21.50;99.90
18888;DHT22;9576;47.792;9.628;2022-07-11T19:19:40;21.30;99.90
18888;DHT22;9576;47.792;9.628;2022-07-11T19:22:42;21.20;99.90
18888;DHT22;9576;47.792;9.628;2022-07-11T19:25:45;21.10;99.90
18888;DHT22;9576;47.792;9.628;2022-07-11T19:28:48;21.00;99.90
18888;DHT22;9576;47.792;9.628;2022-07-11T19:31:52;20.80;99.90
18888;DHT22;9576;47.792;9.628;2022-07-11T19:34:54;20.70;99.90
18888;DHT22;9576;47.792;9.628;2022-07-11T19:37:56;20.50;99.90